Time;durP1;ratioP1;P1;durP2;ratioP2;P2;SDS_P1;SDS_P2;PMS_P1;PMS_P2;Temp;Humidity;BMP_temperature;BMP_pressure;BME280_temperature;BME280_humidity;BME280_pressure;Samples;Min_cycle;Max_cycle;Signal;HPM_P1;HPM_P2
2023/07/30 00:02:09;;;;;;;4.05;1.63;;;;;;;18.22;100.00;100501.28;6277949;28;20045;-76
2023/07/30 00:05:10;;;;;;;2.95;1.63;;;;;;;18.16;100.00;100505.28;6277326;28;20045;-75
2023/07/30 00:08:12;;;;;;;3.28;1.70;;;;;;;18.14;100.00;100496.63;6278012;28;20060;-76
2023/07/30 00:11:13;;;;;;;4.18;1.73;;;;;;;18.17;100.00;100517.63;6277694;28;20083;-75
2023/07/30 00:14:14;;;;;;;2.63;1.48;;;;;;;18.09;100.00;100522.78;6277446;28;20045;-74
2023/07/30 00:17:17;;;;;;;1.63;1.13;;;;;;;18.22;100.00;100523.38;6277628;28;20053;-76
2023/07/30 00:20:19;;;;;;;2.05;1.35;;;;;;;18.30;100.00;100532.50;6277360;28;20053;-76
2023/07/30 00:23:21;;;;;;;1.48;1.23;;;;;;;18.29;100.00;100531.66;6277137;28;20052;-75
2023/07/30 00:26:23;;;;;;;2.70;1.48;;;;;;;18.28;100.00;100535.28;6277216;28;20056;-75
2023/07/30 00:29:25;;;;;;;4.70;2.20;;;;;;;18.07;100.00;100530.06;6277369;28;20059;-75
2023/07/30 00:32:27;;;;;;;5.65;2.28;;;;;;;18.08;100.00;100530.91;6277058;28;20156;-76
2023/07/30 00:35:29;;;;;;;2.88;1.85;;;;;;;18.03;100.00;100519.81;6276996;28;20048;-75
2023/07/30 00:38:30;;;;;;;3.25;2.30;;;;;;;18.06;100.00;100533.69;6276994;28;20060;-74
2023/07/30 00:41:32;;;;;;;3.28;1.90;;;;;;;17.91;100.00;100532.41;6277200;28;20045;-74
2023/07/30 00:44:33;;;;;;;4.47;2.38;;;;;;;17.95;100.00;100529.31;6275901;28;20052;-75
2023/07/30 00:47:37;;;;;;;3.15;2.10;;;;;;;17.88;100.00;100544.13;6276612;28;20060;-75
2023/07/30 00:50:40;;;;;;;2.88;2.10;;;;;;;17.95;100.00;100529.31;6276839;28;20053;-75
2023/07/30 00:53:41;;;;;;;5.25;2.35;;;;;;;18.02;100.00;100524.28;6276334;28;20056;-75
2023/07/30 00:56:49;;;;;;;5.63;2.13;;;;;;;18.08;100.00;100510.47;6276604;28;20350;-75
2023/07/30 00:59:52;;;;;;;3.83;2.05;;;;;;;18.03;100.00;100515.34;6276445;28;20349;-75
2023/07/30 01:02:54;;;;;;;7.35;2.42;;;;;;;18.04;100.00;100516.22;6276188;28;20052;-75
2023/07/30 01:05:57;;;;;;;2.55;1.45;;;;;;;18.10;100.00;100515.66;6264192;28;20052;-75
2023/07/30 01:08:58;;;;;;;1.95;1.55;;;;;;;18.14;100.00;100525.03;6274904;28;20064;-75
2023/07/30 01:12:01;;;;;;;4.32;1.70;;;;;;;18.11;100.00;100520.00;6275937;28;20060;-75
2023/07/30 01:15:03;;;;;;;3.42;1.80;;;;;;;18.01;100.00;100527.94;6275903;28;20053;-75
2023/07/30 01:18:06;;;;;;;10.30;1.77;;;;;;;18.04;100.00;100521.53;6275980;28;20041;-75
2023/07/30 01:21:08;;;;;;;5.45;1.90;;;;;;;18.01;100.00;100530.59;6275943;28;20373;-75
2023/07/30 01:24:10;;;;;;;1.92;1.50;;;;;;;17.94;100.00;100537.41;6275501;28;20069;-75
2023/07/30 01:27:20;;;;;;;2.35;1.58;;;;;;;17.80;100.00;100533.31;6276030;28;20052;-75
2023/07/30 01:30:26;;;;;;;3.05;1.98;;;;;;;17.77;100.00;100540.72;6274669;28;20049;-75
2023/07/30 01:33:29;;;;;;;2.80;1.75;;;;;;;17.73;100.00;100548.09;6264439;28;20056;-75
2023/07/30 01:36:33;;;;;;;3.13;1.98;;;;;;;17.60;100.00;100553.63;6275744;28;20051;-75
2023/07/30 01:39:38;;;;;;;3.22;1.90;;;;;;;17.66;100.00;100550.41;6275868;28;20049;-75
2023/07/30 01:42:39;;;;;;;1.95;1.40;;;;;;;17.67;100.00;100553.94;6275423;28;20075;-76
2023/07/30 01:45:41;;;;;;;6.93;1.98;;;;;;;17.69;100.00;100557.31;6275366;28;20045;-75
2023/07/30 01:48:42;;;;;;;4.50;1.83;;;;;;;17.73;100.00;100567.56;6270641;28;20048;-76
2023/07/30 01:51:45;;;;;;;2.58;1.60;;;;;;;17.69;100.00;100557.31;6275363;28;20045;-75
2023/07/30 01:54:47;;;;;;;3.17;1.30;;;;;;;17.67;100.00;100554.78;6275247;28;20326;-75
2023/07/30 01:57:48;;;;;;;3.50;2.00;;;;;;;17.53;100.00;100571.03;6275231;28;20057;-75
2023/07/30 02:00:49;;;;;;;2.72;1.88;;;;;;;17.37;100.00;100571.53;6275513;28;20119;-75
2023/07/30 02:03:51;;;;;;;3.28;2.00;;;;;;;17.35;100.00;100573.47;6275352;28;20045;-75
2023/07/30 02:06:54;;;;;;;4.93;1.88;;;;;;;17.37;100.00;100574.19;6275287;28;20048;-75
2023/07/30 02:09:55;;;;;;;2.72;1.85;;;;;;;17.43;100.00;100573.66;6275249;28;20053;-76
2023/07/30 02:12:56;;;;;;;3.78;2.35;;;;;;;17.40;100.00;100573.94;6274883;28;20060;-76
2023/07/30 02:15:58;;;;;;;3.22;2.15;;;;;;;17.44;100.00;100571.81;6275099;28;20060;-76
2023/07/30 02:18:59;;;;;;;2.53;1.55;;;;;;;17.43;100.00;100573.66;6275067;28;20463;-76
2023/07/30 02:22:02;;;;;;;3.30;2.00;;;;;;;17.45;100.00;100571.72;6275046;28;20349;-74
2023/07/30 02:25:03;;;;;;;5.03;2.08;;;;;;;17.29;100.00;100575.78;6274755;28;20041;-75
2023/07/30 02:28:05;;;;;;;2.38;1.58;;;;;;;17.31;100.00;100571.22;6275235;28;20056;-75
2023/07/30 02:31:06;;;;;;;6.38;2.20;;;;;;;17.20;100.00;100567.63;6274948;28;20048;-75
2023/07/30 02:34:07;;;;;;;2.95;1.80;;;;;;;17.05;100.00;100574.22;6274938;28;20041;-75
2023/07/30 02:37:10;;;;;;;3.58;1.80;;;;;;;17.11;100.00;100570.22;6274729;28;20495;-76
2023/07/30 02:40:12;;;;;;;4.15;1.90;;;;;;;16.97;100.00;100566.88;6274277;28;20049;-74
2023/07/30 02:43:13;;;;;;;2.30;1.58;;;;;;;17.04;100.00;100571.72;6274501;28;20464;-75
2023/07/30 02:46:15;;;;;;;4.70;1.60;;;;;;;17.03;100.00;100570.00;6274700;28;20056;-75
2023/07/30 02:49:16;;;;;;;2.80;1.95;;;;;;;16.95;100.00;100566.19;6274764;28;20060;-75
2023/07/30 02:52:19;;;;;;;3.60;1.73;;;;;;;16.98;100.00;100570.38;6275006;28;20429;-75
2023/07/30 02:55:20;;;;;;;2.30;1.13;;;;;;;16.90;100.00;100575.50;6274422;28;20041;-75
2023/07/30 02:58:22;;;;;;;7.28;1.70;;;;;;;16.93;100.00;100572.56;6274855;28;20053;-76
2023/07/30 03:01:23;;;;;;;5.47;1.75;;;;;;;16.71;100.00;100579.66;6274614;28;20049;-75
2023/07/30 03:04:25;;;;;;;2.70;1.40;;;;;;;16.80;100.00;100575.41;6272337;28;20045;-75
2023/07/30 03:07:28;;;;;;;5.03;1.38;;;;;;;16.76;100.00;100584.59;6262789;28;20045;-75
2023/07/30 03:10:30;;;;;;;3.20;1.90;;;;;;;16.77;100.00;100577.47;6278993;28;20056;-75
2023/07/30 03:13:31;;;;;;;4.32;1.52;;;;;;;16.82;100.00;100580.59;6276061;28;20064;-75
2023/07/30 03:16:33;;;;;;;9.77;1.95;;;;;;;16.79;100.00;100576.38;6278647;28;20049;-75
2023/07/30 03:19:34;;;;;;;4.45;1.67;;;;;;;16.80;100.00;100580.72;6279067;28;20045;-75
2023/07/30 03:22:37;;;;;;;3.58;1.35;;;;;;;16.76;100.00;100579.31;6278694;28;20057;-75
2023/07/30 03:25:39;;;;;;;4.57;1.85;;;;;;;16.57;100.00;100584.38;6278386;28;20353;-75
2023/07/30 03:28:40;;;;;;;5.13;1.25;;;;;;;16.67;100.00;100587.97;6278616;28;20099;-75
2023/07/30 03:31:42;;;;;;;4.80;1.58;;;;;;;16.71;100.00;100587.59;6272936;28;20429;-75
2023/07/30 03:34:43;;;;;;;6.35;1.40;;;;;;;16.60;100.00;100589.44;6278292;28;20045;-75
2023/07/30 03:37:46;;;;;;;3.67;1.48;;;;;;;16.53;100.00;100590.88;6278325;28;20366;-75
2023/07/30 03:40:47;;;;;;;2.40;1.20;;;;;;;16.47;100.00;100587.75;6278448;28;20048;-75
2023/07/30 03:43:49;;;;;;;5.63;1.83;;;;;;;16.44;100.00;100592.47;6277893;28;20056;-75
2023/07/30 03:46:50;;;;;;;6.05;1.50;;;;;;;16.46;100.00;100590.53;6278437;28;20056;-75
2023/07/30 03:49:52;;;;;;;3.60;1.58;;;;;;;16.33;100.00;100597.81;6278470;28;20055;-75
2023/07/30 03:52:54;;;;;;;16.52;1.70;;;;;;;16.28;100.00;100592.03;6278068;28;20068;-74
2023/07/30 03:55:56;;;;;;;1.88;1.23;;;;;;;16.18;100.00;100597.22;6277971;28;20049;-75
2023/07/30 03:58:57;;;;;;;4.07;1.70;;;;;;;16.23;100.00;100597.69;6277944;28;20349;-75
2023/07/30 04:01:59;;;;;;;5.90;1.73;;;;;;;16.06;100.00;100593.72;6269228;28;20049;-75
2023/07/30 04:05:00;;;;;;;2.75;1.42;;;;;;;15.89;100.00;100604.78;6269610;28;20425;-74
2023/07/30 04:08:04;;;;;;;7.68;1.48;;;;;;;16.03;100.00;100603.72;6276254;28;20048;-75
2023/07/30 04:11:05;;;;;;;4.78;1.65;;;;;;;16.05;100.00;100607.94;6242081;28;20046;-75
2023/07/30 04:14:08;;;;;;;5.13;1.60;;;;;;;16.00;100.00;100609.28;6239374;28;20038;-75
2023/07/30 04:17:10;;;;;;;8.80;1.83;;;;;;;15.91;100.00;100610.84;6240834;28;20358;-75
2023/07/30 04:20:12;;;;;;;4.78;1.88;;;;;;;16.01;100.00;100610.94;6243516;28;20050;-75
2023/07/30 04:23:14;;;;;;;6.35;1.27;;;;;;;16.08;100.00;100615.66;6240676;28;20473;-75
2023/07/30 04:26:16;;;;;;;7.47;1.98;;;;;;;16.02;100.00;100617.94;6238637;28;20042;-74
2023/07/30 04:29:17;;;;;;;8.93;1.13;;;;;;;16.00;100.00;100606.63;6240787;28;20045;-75
2023/07/30 04:32:19;;;;;;;2.78;1.38;;;;;;;15.92;100.00;100616.00;6245471;28;20061;-75
2023/07/30 04:35:20;;;;;;;4.80;1.35;;;;;;;16.01;100.00;100610.94;6251442;28;20045;-75
2023/07/30 04:38:23;;;;;;;2.15;1.20;;;;;;;16.10;100.00;100610.22;6244817;28;20061;-75
2023/07/30 04:41:24;;;;;;;4.20;1.30;;;;;;;16.15;100.00;100608.91;6240174;28;20050;-75
2023/07/30 04:44:26;;;;;;;2.60;1.33;;;;;;;16.08;100.00;100613.00;6238173;28;20045;-75
2023/07/30 04:47:28;;;;;;;3.78;1.23;;;;;;;16.16;100.00;100620.34;6240610;28;20438;-75
2023/07/30 04:50:29;;;;;;;2.85;1.38;;;;;;;16.17;100.00;100608.78;6240970;28;20052;-75
2023/07/30 04:53:32;;;;;;;3.60;1.15;;;;;;;16.15;100.00;100614.19;6251905;28;20053;-75
2023/07/30 04:56:33;;;;;;;4.78;1.20;;;;;;;16.19;100.00;100606.84;6251751;28;20072;-75
2023/07/30 04:59:35;;;;;;;5.53;1.55;;;;;;;16.19;100.00;100610.34;6252110;28;20054;-75
2023/07/30 05:02:36;;;;;;;2.40;1.13;;;;;;;16.22;100.00;100604.81;6251832;28;20353;-75
2023/07/30 05:05:37;;;;;;;4.97;1.42;;;;;;;16.27;100.00;100609.75;6254290;28;20044;-75
2023/07/30 05:08:40;;;;;;;2.13;1.10;;;;;;;16.27;100.00;100608.91;6273236;28;20377;-75
2023/07/30 05:11:42;;;;;;;5.78;1.65;;;;;;;16.30;100.00;100598.03;6275455;28;20060;-75
2023/07/30 05:14:43;;;;;;;5.05;1.00;;;;;;;16.25;100.00;100606.34;6271843;28;20041;-75
2023/07/30 05:17:45;;;;;;;6.68;1.50;;;;;;;16.31;100.00;100607.69;6268456;28;20052;-76
2023/07/30 05:20:48;;;;;;;2.60;1.48;;;;;;;16.30;100.00;100604.19;6267081;28;20060;-76
2023/07/30 05:23:51;;;;;;;1.58;1.35;;;;;;;16.28;100.00;100606.13;6246391;28;20056;-76
2023/07/30 05:26:52;;;;;;;3.25;1.20;;;;;;;16.26;100.00;100612.50;6253973;28;20077;-76
2023/07/30 05:29:54;;;;;;;6.22;2.15;;;;;;;16.28;100.00;100608.78;6250875;28;20052;-75
2023/07/30 05:32:55;;;;;;;3.72;1.40;;;;;;;16.30;100.00;100611.28;6250936;28;20469;-76
2023/07/30 05:35:57;;;;;;;7.13;2.25;;;;;;;16.36;100.00;100605.53;6250914;28;20132;-75
2023/07/30 05:38:59;;;;;;;6.05;1.67;;;;;;;16.36;100.00;100609.00;6247881;28;20326;-75
2023/07/30 05:42:01;;;;;;;4.82;1.42;;;;;;;16.39;100.00;100615.88;6250865;28;20049;-75
2023/07/30 05:45:02;;;;;;;2.33;1.50;;;;;;;16.32;100.00;100620.81;6241974;28;20343;-75
2023/07/30 05:48:04;;;;;;;4.03;1.85;;;;;;;16.29;100.00;100620.22;6232336;28;20050;-74
2023/07/30 05:51:05;;;;;;;4.10;1.83;;;;;;;16.39;100.00;100615.88;6226261;28;20350;-76
2023/07/30 05:54:08;;;;;;;4.25;2.22;;;;;;;16.48;100.00;100612.47;6226148;28;20046;-76
2023/07/30 05:57:09;;;;;;;6.68;2.15;;;;;;;16.46;100.00;100620.56;6226013;28;20371;-74
2023/07/30 06:00:11;;;;;;;3.70;1.90;;;;;;;16.35;100.00;100617.06;6226338;28;20054;-75
2023/07/30 06:03:13;;;;;;;5.55;1.83;;;;;;;16.49;100.00;100614.19;6225777;28;20054;-76
2023/07/30 06:06:14;;;;;;;8.63;2.10;;;;;;;16.52;100.00;100605.97;6226115;28;20056;-75
2023/07/30 06:09:17;;;;;;;4.72;2.15;;;;;;;16.49;100.00;100611.53;6225914;28;20358;-75
2023/07/30 06:12:18;;;;;;;4.15;2.25;;;;;;;16.58;100.00;100610.78;6232879;28;20053;-75
2023/07/30 06:15:20;;;;;;;3.28;1.75;;;;;;;16.61;100.00;100612.34;6274904;28;20068;-75
2023/07/30 06:18:21;;;;;;;3.03;1.88;;;;;;;16.62;100.00;100611.38;6275417;28;20056;-75
2023/07/30 06:21:22;;;;;;;6.45;2.00;;;;;;;16.65;100.00;100614.63;6275278;28;20059;-75
2023/07/30 06:24:25;;;;;;;3.30;1.63;;;;;;;16.69;100.00;100615.22;6274705;28;20049;-74
2023/07/30 06:27:27;;;;;;;6.30;2.20;;;;;;;16.70;100.00;100617.75;6275031;28;20045;-76
2023/07/30 06:30:28;;;;;;;5.35;2.20;;;;;;;16.79;100.00;100615.34;6275270;28;20457;-75
2023/07/30 06:33:29;;;;;;;8.55;1.67;;;;;;;16.86;100.00;100609.41;6274957;28;20068;-76
2023/07/30 06:36:31;;;;;;;5.13;1.80;;;;;;;16.88;100.00;100607.47;6274848;28;20053;-76
2023/07/30 06:39:34;;;;;;;4.22;1.98;;;;;;;16.91;100.00;100612.53;6275058;28;20056;-76
2023/07/30 06:42:35;;;;;;;7.00;2.40;;;;;;;16.94;100.00;100614.06;6263256;28;21222;-74
2023/07/30 06:45:36;;;;;;;4.60;1.95;;;;;;;16.88;100.00;100620.75;6240106;28;20046;-76
2023/07/30 06:48:38;;;;;;;5.50;2.58;;;;;;;16.95;100.00;100611.31;6247741;28;20542;-76
2023/07/30 06:51:39;;;;;;;3.80;1.95;;;;;;;17.03;100.00;100620.44;6254530;28;20250;-74
2023/07/30 06:54:42;;;;;;;8.80;2.33;;;;;;;17.08;100.00;100621.78;6254502;28;20057;-76
2023/07/30 06:57:43;;;;;;;5.40;1.73;;;;;;;17.10;100.00;100622.47;6253472;28;20049;-76
2023/07/30 07:00:45;;;;;;;7.07;2.10;;;;;;;17.16;100.00;100637.91;6258137;28;20048;-75
2023/07/30 07:03:46;;;;;;;4.93;2.00;;;;;;;17.16;100.00;100632.59;6261095;28;20045;-77
2023/07/30 07:06:48;;;;;;;7.63;1.95;;;;;;;17.16;100.00;100635.25;6274986;28;20338;-76
2023/07/30 07:09:50;;;;;;;6.82;2.10;;;;;;;17.24;100.00;100642.56;6275583;28;20055;-76
2023/07/30 07:12:52;;;;;;;11.35;3.15;;;;;;;17.23;100.00;100641.75;6276669;28;20460;-75
2023/07/30 07:15:53;;;;;;;3.22;1.73;;;;;;;17.25;100.00;100641.59;6269007;28;20056;-77
2023/07/30 07:18:55;;;;;;;8.27;2.28;;;;;;;17.28;100.00;100637.88;6277226;28;20045;-77
2023/07/30 07:21:56;;;;;;;5.38;1.83;;;;;;;17.33;100.00;100647.13;6278721;28;20052;-76
2023/07/30 07:24:59;;;;;;;4.13;2.00;;;;;;;17.33;100.00;100647.13;6275283;28;20461;-76
2023/07/30 07:28:00;;;;;;;7.07;1.98;;;;;;;17.39;100.00;100651.06;6278797;28;20055;-77
2023/07/30 07:31:02;;;;;;;9.85;1.90;;;;;;;17.44;100.00;100656.84;6265916;28;20358;-77
2023/07/30 07:34:03;;;;;;;11.70;2.33;;;;;;;17.47;100.00;100653.94;6273183;28;20088;-76
2023/07/30 07:37:06;;;;;;;4.53;2.05;;;;;;;17.50;100.00;100661.66;6276961;28;20045;-77
2023/07/30 07:40:10;;;;;;;5.80;1.88;;;;;;;17.53;100.00;100663.22;6278621;28;20056;-75
2023/07/30 07:43:11;;;;;;;6.78;2.40;;;;;;;17.60;100.00;100657.25;6277437;28;20061;-75
2023/07/30 07:46:14;;;;;;;6.13;2.00;;;;;;;17.67;100.00;100670.88;6277711;28;20045;-76
2023/07/30 07:49:15;;;;;;;8.65;2.05;;;;;;;17.67;100.00;100660.25;6278292;28;20052;-76
2023/07/30 07:52:17;;;;;;;4.72;1.75;;;;;;;17.68;100.00;100660.13;6272683;28;20060;-75
2023/07/30 07:55:20;;;;;;;6.15;1.83;;;;;;;17.63;100.00;100658.84;6277537;28;20045;-76
2023/07/30 07:58:21;;;;;;;8.73;1.98;;;;;;;17.65;100.00;100659.53;6278357;28;20068;-76
2023/07/30 08:01:22;;;;;;;3.15;1.67;;;;;;;17.73;100.00;100660.59;6276316;28;20056;-76
2023/07/30 08:04:24;;;;;;;3.33;1.60;;;;;;;17.78;100.00;100660.22;6239823;28;20042;-77
2023/07/30 08:07:25;;;;;;;18.33;2.00;;;;;;;17.80;100.00;100668.88;6237466;28;20060;-75
2023/07/30 08:10:28;;;;;;;12.60;2.30;;;;;;;17.86;100.00;100664.88;6235988;28;20050;-76
2023/07/30 08:13:29;;;;;;;7.60;1.92;;;;;;;17.84;100.00;100658.84;6243560;28;20052;-75
2023/07/30 08:16:31;;;;;;;6.50;2.25;;;;;;;17.83;100.00;100658.00;6246381;28;20046;-76
2023/07/30 08:19:32;;;;;;;10.68;2.70;;;;;;;17.85;100.00;100656.06;6239010;28;20060;-75
2023/07/30 08:22:34;;;;;;;4.95;2.03;;;;;;;17.86;100.00;100652.44;6246028;28;20057;-76
2023/07/30 08:25:37;;;;;;;9.40;2.10;;;;;;;17.94;100.00;100652.63;6267980;28;20049;-75
2023/07/30 08:28:38;;;;;;;5.70;2.15;;;;;;;18.02;100.00;100654.59;6259199;28;20041;-76
2023/07/30 08:31:40;;;;;;;13.20;3.17;;;;;;;17.95;100.00;100653.47;6235764;28;20067;-76
2023/07/30 08:34:41;;;;;;;8.63;2.47;;;;;;;18.02;100.00;100653.75;6256916;28;20055;-76
2023/07/30 08:37:43;;;;;;;6.38;2.58;;;;;;;18.06;100.00;100653.38;6257718;28;20048;-75
2023/07/30 08:40:45;;;;;;;8.48;3.42;;;;;;;18.02;100.00;100654.59;6258181;28;20124;-76
2023/07/30 08:43:48;;;;;;;6.45;2.20;;;;;;;17.95;100.00;100662.28;6266931;28;20120;-76
2023/07/30 08:46:50;;;;;;;9.98;3.28;;;;;;;17.92;100.00;100662.53;6259580;28;20042;-76
2023/07/30 08:49:51;;;;;;;8.02;2.50;;;;;;;17.96;100.00;100655.13;6258191;28;20049;-76
2023/07/30 08:52:54;;;;;;;8.00;2.53;;;;;;;17.90;100.00;100661.84;6266582;28;20456;-75
2023/07/30 08:55:58;;;;;;;8.85;3.13;;;;;;;18.00;100.00;100667.19;6270794;28;20045;-75
2023/07/30 08:59:02;;;;;;;8.35;3.20;;;;;;;17.97;100.00;100670.94;6256174;28;20338;-76
2023/07/30 09:02:08;;;;;;;9.63;2.67;;;;;;;18.02;100.00;100672.38;6248255;28;20049;-76
2023/07/30 09:05:10;;;;;;;7.50;3.20;;;;;;;18.03;100.00;100672.22;6258664;28;20054;-76
2023/07/30 09:08:13;;;;;;;9.10;3.00;;;;;;;17.99;100.00;100673.50;6275273;28;20064;-76
2023/07/30 09:11:16;;;;;;;8.07;3.17;;;;;;;18.00;100.00;100684.00;6262286;28;20049;-76
2023/07/30 09:14:20;;;;;;;12.18;3.30;;;;;;;18.00;100.00;100685.81;6252471;28;20465;-76
2023/07/30 09:17:21;;;;;;;8.52;2.42;;;;;;;17.89;100.00;100686.72;6259549;28;20052;-75
2023/07/30 09:20:23;;;;;;;8.82;3.88;;;;;;;17.83;100.00;100691.72;6263757;28;20050;-76
2023/07/30 09:23:24;;;;;;;13.63;2.80;;;;;;;17.83;100.00;100697.88;6257762;28;20056;-76
2023/07/30 09:26:27;;;;;;;11.00;3.40;;;;;;;17.78;100.00;100699.25;6275617;28;20052;-75
2023/07/30 09:29:28;;;;;;;10.48;3.20;;;;;;;17.74;100.00;100694.19;6276079;28;20429;-76
2023/07/30 09:32:32;;;;;;;11.85;2.90;;;;;;;17.74;100.00;100719.91;6258903;28;20041;-76
2023/07/30 09:35:34;;;;;;;6.95;2.88;;;;;;;17.70;100.00;100707.81;6303213;23;20045;-72
2023/07/30 09:38:40;;;;;;;7.72;3.15;;;;;;;17.66;100.00;100720.50;6270802;28;20142;-72
2023/07/30 09:41:44;;;;;;;11.13;3.45;;;;;;;17.68;100.00;100713.28;6268347;28;20048;-71
2023/07/30 09:44:47;;;;;;;12.80;3.10;;;;;;;17.73;100.00;100713.75;6276216;28;20059;-71
2023/07/30 09:47:50;;;;;;;9.20;2.90;;;;;;;17.78;100.00;100715.19;6279443;28;20426;-71
2023/07/30 09:50:53;;;;;;;9.75;2.78;;;;;;;17.81;100.00;100717.59;6269365;28;20463;-72
2023/07/30 09:53:54;;;;;;;8.95;3.50;;;;;;;17.77;100.00;100716.19;6277867;28;20049;-72
2023/07/30 09:56:57;;;;;;;9.43;3.28;;;;;;;17.78;100.00;100721.34;6278002;28;20060;-72
2023/07/30 09:59:58;;;;;;;10.80;2.72;;;;;;;17.80;100.00;100732.69;6300282;28;20056;-72
2023/07/30 10:03:02;;;;;;;10.82;3.58;;;;;;;17.88;100.00;100730.22;6285599;28;20333;-73
2023/07/30 10:06:07;;;;;;;13.35;2.90;;;;;;;17.89;100.00;100733.72;6272788;28;20049;-72
2023/07/30 10:09:11;;;;;;;8.40;3.13;;;;;;;17.88;100.00;100737.38;6282802;28;20468;-73
2023/07/30 10:12:16;;;;;;;8.80;3.35;;;;;;;17.90;100.00;100738.09;6290258;28;20057;-71
2023/07/30 10:15:21;;;;;;;11.80;3.13;;;;;;;17.92;100.00;100744.97;6286727;28;20068;-72
2023/07/30 10:18:22;;;;;;;7.00;2.67;;;;;;;18.02;100.00;100742.34;6253693;28;20053;-72
2023/07/30 10:21:25;;;;;;;7.22;2.85;;;;;;;18.08;100.00;100756.97;6255652;28;20049;-72
2023/07/30 10:24:27;;;;;;;9.05;3.03;;;;;;;18.09;100.00;100756.00;6255399;28;20056;-73
2023/07/30 10:27:43;;;;;;;8.10;3.17;;;;;;;18.12;100.00;100759.25;6255530;28;20081;-72
2023/07/30 10:30:56;;;;;;;8.90;2.75;;;;;;;18.19;100.00;100754.22;6284480;28;20202;-72
2023/07/30 10:33:58;;;;;;;7.03;3.05;;;;;;;18.13;100.00;100747.63;6276733;28;20075;-74
2023/07/30 10:37:00;;;;;;;8.82;3.30;;;;;;;18.11;100.00;100749.56;6285605;28;20056;-72
2023/07/30 10:40:16;;;;;;;6.05;3.28;;;;;;;18.15;100.00;100745.66;6288186;28;20076;-72
2023/07/30 10:43:18;;;;;;;7.88;2.83;;;;;;;18.17;100.00;100742.91;6288213;28;20059;-72
2023/07/30 10:46:20;;;;;;;13.25;3.58;;;;;;;18.21;100.00;100753.16;6279575;28;20053;-74
2023/07/30 10:49:21;;;;;;;11.55;3.38;;;;;;;18.27;100.00;100741.13;6285631;28;20048;-74
2023/07/30 10:52:26;;;;;;;7.47;3.97;;;;;;;18.23;100.00;100745.03;6304647;28;20049;-73
2023/07/30 10:55:30;;;;;;;14.98;3.38;;;;;;;18.30;100.00;100750.66;6304165;28;20048;-71
2023/07/30 10:58:34;;;;;;;9.85;3.80;;;;;;;18.32;100.00;100746.91;6304405;28;20044;-74
2023/07/30 11:01:40;;;;;;;7.35;3.33;;;;;;;18.46;100.00;100745.69;6304065;28;20063;-74
2023/07/30 11:04:41;;;;;;;9.02;3.28;;;;;;;18.48;100.00;100739.25;6288185;28;20113;-73
2023/07/30 11:07:50;;;;;;;6.90;3.00;;;;;;;18.72;100.00;100725.69;6289767;28;20036;-73
2023/07/30 11:10:51;;;;;;;6.88;2.38;;;;;;;18.91;100.00;100724.06;6295983;28;20059;-76
2023/07/30 11:13:54;;;;;;;5.20;2.60;;;;;;;19.10;100.00;100712.59;6300003;28;20052;-74
2023/07/30 11:16:59;;;;;;;9.23;3.08;;;;;;;18.99;100.00;100713.56;6285315;28;20064;-72
2023/07/30 11:20:00;;;;;;;9.52;2.83;;;;;;;19.09;100.00;100697.59;6288971;28;20135;-73
2023/07/30 11:23:01;;;;;;;5.32;2.75;;;;;;;19.10;100.00;100710.75;6293572;28;20348;-72
2023/07/30 11:26:05;;;;;;;7.25;3.28;;;;;;;19.41;100.00;100714.16;6292836;28;20053;-72
2023/07/30 11:29:16;;;;;;;6.75;2.85;;;;;;;19.65;100.00;100707.59;6303235;28;20052;-74
2023/07/30 11:32:18;;;;;;;10.43;2.78;;;;;;;19.69;100.00;100699.19;6303835;28;20130;-73
2023/07/30 11:35:19;;;;;;;8.18;2.60;;;;;;;19.67;100.00;100695.81;6303489;28;20048;-73
2023/07/30 11:38:21;;;;;;;8.75;2.20;;;;;;;19.79;100.00;100701.81;6303578;28;20051;-75
2023/07/30 11:41:25;;;;;;;6.60;2.50;;;;;;;19.82;100.00;100701.56;6296602;28;20055;-75
2023/07/30 11:44:37;;;;;;;11.88;2.95;;;;;;;19.64;100.00;100705.91;6294779;28;20044;-75
2023/07/30 11:47:39;;;;;;;4.82;2.42;;;;;;;19.77;100.00;100711.81;6303158;28;20063;-75
2023/07/30 11:50:45;;;;;;;6.10;2.47;;;;;;;19.68;100.00;100705.50;6303279;28;20048;-75
2023/07/30 11:53:50;;;;;;;8.10;2.65;;;;;;;19.71;100.00;100699.03;6303083;28;20141;-73
2023/07/30 11:56:55;;;;;;;5.10;2.42;;;;;;;19.92;100.00;100690.88;6303415;28;20051;-74
2023/07/30 11:59:57;;;;;;;4.13;1.95;;;;;;;20.18;100.00;100696.44;6292935;28;20049;-75
2023/07/30 12:03:02;;;;;;;7.88;2.22;;;;;;;20.16;100.00;100699.22;6299702;28;20049;-74
2023/07/30 12:06:05;;;;;;;5.95;2.42;;;;;;;20.08;100.00;100696.44;6302691;28;20154;-74
2023/07/30 12:09:11;;;;;;;11.68;2.75;;;;;;;20.26;100.00;100704.56;6303005;28;20081;-76
2023/07/30 12:12:12;;;;;;;3.10;1.75;;;;;;;20.22;100.00;100701.31;6302714;28;20048;-75
2023/07/30 12:15:15;;;;;;;5.95;1.60;;;;;;;20.18;100.00;100699.09;6302746;28;20052;-76
2023/07/30 12:18:17;;;;;;;4.97;1.95;;;;;;;20.21;100.00;100690.78;6302518;28;20052;-83
2023/07/30 12:21:18;;;;;;;2.92;1.48;;;;;;;20.30;100.00;100692.56;6302501;28;20348;-77
2023/07/30 12:24:20;;;;;;;9.75;2.30;;;;;;;20.42;100.00;100686.06;6302043;28;20071;-75
2023/07/30 12:27:21;;;;;;;5.30;1.67;;;;;;;20.26;100.00;100685.88;6287002;28;20051;-76
2023/07/30 12:30:26;;;;;;;5.20;1.40;;;;;;;20.17;100.00;100681.41;6285846;28;20045;-75
2023/07/30 12:33:27;;;;;;;5.57;1.92;;;;;;;20.47;100.00;100669.59;6297586;28;20045;-74
2023/07/30 12:36:29;;;;;;;5.28;1.73;;;;;;;20.74;100.00;100687.50;6293491;28;20328;-75
2023/07/30 12:39:30;;;;;;;4.18;1.30;;;;;;;20.54;100.00;100680.59;6283941;28;20048;-74
2023/07/30 12:42:32;;;;;;;4.03;1.70;;;;;;;20.38;100.00;100676.66;6284957;28;20060;-74
2023/07/30 12:45:35;;;;;;;3.13;1.45;;;;;;;20.32;100.00;100671.09;6289702;28;20419;-75
2023/07/30 12:48:36;;;;;;;6.13;2.58;;;;;;;20.42;100.00;100672.72;6291703;28;20048;-74
2023/07/30 12:51:38;;;;;;;5.18;1.80;;;;;;;20.54;100.00;100678.75;6288277;28;20045;-75
2023/07/30 12:54:39;;;;;;;2.55;1.20;;;;;;;20.47;100.00;100672.28;6280961;28;20048;-76
2023/07/30 12:57:40;;;;;;;4.05;1.20;;;;;;;20.39;100.00;100670.34;6284567;28;20213;-76
2023/07/30 13:00:43;;;;;;;4.60;2.03;;;;;;;20.48;100.00;100682.88;6276348;28;20044;-75
2023/07/30 13:03:46;;;;;;;2.28;1.13;;;;;;;20.72;100.00;100674.31;6279298;28;20360;-77
2023/07/30 13:06:47;;;;;;;4.00;1.40;;;;;;;20.66;100.00;100676.72;6292861;28;20372;-77
2023/07/30 13:09:49;;;;;;;3.22;1.65;;;;;;;20.50;100.00;100664.84;6286805;28;20053;-77
2023/07/30 13:12:51;;;;;;;4.10;1.50;;;;;;;20.45;100.00;100668.94;6276739;28;20063;-74
2023/07/30 13:15:57;;;;;;;9.73;2.08;;;;;;;20.38;100.00;100681.16;6288377;28;20068;-77
2023/07/30 13:18:59;;;;;;;3.42;1.60;;;;;;;20.26;100.00;100688.53;6287190;28;20047;-78
2023/07/30 13:22:00;;;;;;;3.00;1.58;;;;;;;20.21;100.00;100686.31;6288493;28;20459;-75
2023/07/30 13:25:01;;;;;;;5.90;1.48;;;;;;;20.20;100.00;100689.09;6292020;28;20356;-77
2023/07/30 13:28:03;;;;;;;7.38;1.75;;;;;;;20.11;100.00;100698.81;6276550;28;20056;-76
2023/07/30 13:31:06;;;;;;;5.60;1.88;;;;;;;19.98;100.00;100704.47;6275960;28;20056;-76
2023/07/30 13:34:07;;;;;;;8.15;2.00;;;;;;;19.77;100.00;100727.81;6262991;28;20463;-77
2023/07/30 13:37:09;;;;;;;8.23;1.70;;;;;;;19.03;100.00;100738.94;6262259;28;20073;-78
2023/07/30 13:40:11;;;;;;;8.13;2.00;;;;;;;18.10;100.00;100744.38;6272792;28;20048;-75
2023/07/30 13:43:13;;;;;;;5.47;1.95;;;;;;;17.63;100.00;100744.72;6269678;28;20429;-75
2023/07/30 13:46:15;;;;;;;3.00;1.55;;;;;;;17.37;100.00;100738.03;6272562;28;20076;-75
2023/07/30 13:49:17;;;;;;;7.10;2.38;;;;;;;17.46;100.00;100727.50;6275737;28;20063;-75
2023/07/30 13:52:18;;;;;;;6.03;2.05;;;;;;;17.59;100.00;100724.69;6274947;28;20059;-75
2023/07/30 13:55:20;;;;;;;5.60;2.28;;;;;;;17.82;100.00;100716.63;6275362;28;20048;-75
2023/07/30 13:58:21;;;;;;;3.00;1.65;;;;;;;17.74;100.00;100727.91;6275368;28;20465;-74